Uniontown, WA (99179)

11:31 PM PDT on October 24, 2014 (GMT -0700)
Town of Colton | Change Station
CLOSE
Current Station
Personal Weather Station
Location: Colton, WA
Elevation: 2579 ft
Nearby Weather Stations
Active Advisory: Wind Advisory

Elev 2579 ft 46.57 °N, 117.12 °W | Updated 1 minute ago

Clear
Clear
45.5 °F
Feels Like 46 °F
N
0.0
Wind Variable Wind from ESE
Gusts 0.0 mph

Today
High -- | Low -- °F
--% Chance of Precip.
Yesterday
High -- | Low -- °F
Precip. -- in
7:18 AM 5:45 PM
New Moon, 2% visible
Pressure 29.93 in
Visibility 10.0 miles
Clouds Clear
Windchill 46 °F
Dew Point 43 °F
Humidity 91%
Rainfall 0.07 in
Snow Depth Not available.
UV 0 out of 12
Pollen .80 out of 12
Air Quality Not available.
Flu Activity Sporadic
METAR KLWS 250556Z AUTO 12004KT 10SM CLR 09/09 A2992 RMK AO2 SLP133 60002 T00940089 10128 20094 58020

More Conditions Fewer Conditions

Pressure 29.93 in
Visibility 10.0 miles
Clouds Clear
Windchill 46 °F
Dew Point 43 °F
Humidity 91%
Rainfall 0.07 in
Snow Depth Not available.
UV 0 out of 12
Pollen .80 out of 12
Air Quality Not available.
Flu Activity Sporadic
METAR KLWS 250556Z AUTO 12004KT 10SM CLR 09/09 A2992 RMK AO2 SLP133 60002 T00940089 10128 20094 58020

More Conditions Fewer Conditions

10-Day Weather Forecast

Almanac

Astronomy

Oct. 24, 2014 Rise Set
Actual Time 7:18 AM PDT 5:45 PM PDT
Civil Twilight 6:47 AM PDT 6:16 PM PDT
Nautical Twilight 6:12 AM PDT 6:51 PM PDT
Astronomical Twilight 5:37 AM PDT 7:26 PM PDT
Moon 8:04 AM PDT (10/24) 6:25 PM PDT (10/24)
Length of Visible Light 11h 28m
Length of Day
10h 27m
Tomorrow will be 3m 4s shorter.
New Moon, 2% of the Moon is Illuminated
Oct 25
New Moon
Oct 30
First Quarter
Nov 6
Full
Nov 14
Last Quarter
Nov 22
New

Community

WunderPhotos

Upload Photos

1,764,785 photos uploaded!

Nearby

Snow Depth

Station Depth Elevation
Spruce Springs 1 in 5700 ft
Quartz Peak 1 in 4700 ft
Bunchgrass Meadow 0 in 5000 ft
Moses Mountain 0 in 5300 ft
Trough 1 in 5300 ft

Earthquake Activity

City Distance Mag. Time & Date
No recent earthquake activity has been reported nearby.
Minimum magnitude displayed is 2.5.

Coastal Water Temperatures

Place Temperature
No Stations Reporting

Nearby Weather Stations